M I D A S
Marine Information and Data Acquisition System
Tripno 1586 of the Zeeleeuw from 2008-10-13 07:42:22 to 2008-10-13 14:03:36
Back to CruiseResearch ActivitiesStationsMapUnderway DataData graphs

EquipmentUnitsComment
TimeDGPSUTC
LatitudeDGPSDM.mWGS84
LongitudeDGPSDM.mWGS84
TemperatureSBE03/SBE38deg celciusITS90
ConductivitySBE21S/mITS90
SalinitySBE21 Practical Salinity Units
ChlorophylAChelsea fluorimeterg/lCalibrated in Aceton
Missing or incorrect values are displayed as -999
Sea surface data collected by the RV Zeeleeuw from 2008-10-13 07:42:22 to 2008-10-13 14:03:36
                                                                                    Next 1000 lines
Time Latitude Longitude Temperature Conductivity Salinity ChlorophylA
2008-10-13 07:42:40 51°13.667 2°55.899 -999 -999 -999 -999
2008-10-13 07:42:50 51°13.673 2°55.88 -999 -999 -999 -999
2008-10-13 07:43:00 51°13.68 2°55.861 -999 -999 -999 -999
2008-10-13 07:43:10 51°13.688 2°55.842 -999 -999 -999 -999
2008-10-13 07:43:20 51°13.696 2°55.823 -999 -999 -999 -999
2008-10-13 07:43:30 51°13.704 2°55.803 -999 -999 -999 -999
2008-10-13 07:43:40 51°13.713 2°55.784 -999 -999 -999 -999
2008-10-13 07:43:50 51°13.723 2°55.765 -999 -999 -999 -999
2008-10-13 07:44:00 51°13.733 2°55.746 -999 -999 -999 -999
2008-10-13 07:44:10 51°13.744 2°55.728 -999 -999 -999 -999
2008-10-13 07:44:20 51°13.756 2°55.711 -999 -999 -999 -999
2008-10-13 07:44:30 51°13.768 2°55.694 -999 -999 -999 -999
2008-10-13 07:44:40 51°13.781 2°55.679 -999 -999 -999 -999
2008-10-13 07:44:50 51°13.794 2°55.665 -999 -999 -999 -999
2008-10-13 07:45:00 51°13.808 2°55.653 -999 -999 -999 -999
2008-10-13 07:45:10 51°13.822 2°55.643 -999 -999 -999 -999
2008-10-13 07:45:20 51°13.837 2°55.635 -999 -999 -999 -999
2008-10-13 07:45:30 51°13.852 2°55.631 -999 -999 -999 -999
2008-10-13 07:45:40 51°13.866 2°55.629 -999 -999 -999 -999
2008-10-13 07:45:50 51°13.88 2°55.631 -999 -999 -999 -999
2008-10-13 07:46:00 51°13.893 2°55.636 -999 -999 -999 -999
2008-10-13 07:46:10 51°13.904 2°55.642 -999 -999 -999 -999
2008-10-13 07:46:20 51°13.914 2°55.649 -999 -999 -999 -999
2008-10-13 07:46:30 51°13.922 2°55.656 -999 -999 -999 -999
2008-10-13 07:46:40 51°13.929 2°55.663 -999 -999 -999 -999
2008-10-13 07:46:50 51°13.935 2°55.669 -999 -999 -999 -999
2008-10-13 07:47:00 51°13.938 2°55.673 -999 -999 -999 -999
2008-10-13 07:47:10 51°13.94 2°55.674 -999 -999 -999 -999
2008-10-13 07:47:20 51°13.941 2°55.671 -999 -999 -999 -999
2008-10-13 07:47:30 51°13.942 2°55.662 -999 -999 -999 -999
2008-10-13 07:47:40 51°13.945 2°55.65 -999 -999 -999 -999
2008-10-13 07:47:50 51°13.951 2°55.635 -999 -999 -999 -999
2008-10-13 07:48:00 51°13.961 2°55.619 -999 -999 -999 -999
2008-10-13 07:48:10 51°13.973 2°55.601 -999 -999 -999 -999
2008-10-13 07:48:20 51°13.986 2°55.581 -999 -999 -999 -999
2008-10-13 07:48:30 51°14.001 2°55.559 -999 -999 -999 -999
2008-10-13 07:48:40 51°14.018 2°55.536 -999 -999 -999 -999
2008-10-13 07:48:50 51°14.037 2°55.514 -999 -999 -999 -999
2008-10-13 07:49:00 51°14.057 2°55.491 -999 -999 -999 -999
2008-10-13 07:49:10 51°14.078 2°55.467 -999 -999 -999 -999
2008-10-13 07:49:20 51°14.099 2°55.445 -999 -999 -999 -999
2008-10-13 07:49:30 51°14.12 2°55.422 -999 -999 -999 -999
2008-10-13 07:49:40 51°14.142 2°55.4 -999 -999 -999 -999
2008-10-13 07:49:50 51°14.164 2°55.377 -999 -999 -999 -999
2008-10-13 07:50:00 51°14.185 2°55.353 -999 -999 -999 -999
2008-10-13 07:50:10 51°14.206 2°55.328 -999 -999 -999 -999
2008-10-13 07:50:20 51°14.227 2°55.302 -999 -999 -999 -999
2008-10-13 07:50:30 51°14.246 2°55.275 -999 -999 -999 -999
2008-10-13 07:50:40 51°14.266 2°55.246 -999 -999 -999 -999
2008-10-13 07:50:50 51°14.285 2°55.215 -999 -999 -999 -999
2008-10-13 07:51:00 51°14.303 2°55.183 -999 -999 -999 -999
2008-10-13 07:51:10 51°14.321 2°55.151 -999 -999 -999 -999
2008-10-13 07:51:20 51°14.338 2°55.116 -999 -999 -999 -999
2008-10-13 07:51:30 51°14.355 2°55.081 -999 -999 -999 -999
2008-10-13 07:51:40 51°14.372 2°55.045 -999 -999 -999 -999
2008-10-13 07:51:50 51°14.385 2°55.005 -999 -999 -999 -999
2008-10-13 07:52:00 51°14.398 2°54.964 -999 -999 -999 -999
2008-10-13 07:52:10 51°14.408 2°54.919 -999 -999 -999 -999
2008-10-13 07:52:20 51°14.416 2°54.872 -999 -999 -999 -999
2008-10-13 07:52:30 51°14.423 2°54.822 -999 -999 -999 -999
2008-10-13 07:52:40 51°14.427 2°54.769 -999 -999 -999 -999
2008-10-13 07:52:50 51°14.428 2°54.715 -999 -999 -999 -999
2008-10-13 07:53:00 51°14.428 2°54.66 -999 -999 -999 -999
2008-10-13 07:53:10 51°14.424 2°54.605 -999 -999 -999 -999
2008-10-13 07:53:20 51°14.417 2°54.551 -999 -999 -999 -999
2008-10-13 07:53:30 51°14.407 2°54.497 -999 -999 -999 -999
2008-10-13 07:53:40 51°14.396 2°54.444 -999 -999 -999 -999
2008-10-13 07:53:50 51°14.381 2°54.394 -999 -999 -999 -999
2008-10-13 07:54:00 51°14.365 2°54.344 -999 -999 -999 -999
2008-10-13 07:54:10 51°14.348 2°54.295 -999 -999 -999 -999
2008-10-13 07:54:20 51°14.331 2°54.245 -999 -999 -999 -999
2008-10-13 07:54:30 51°14.314 2°54.196 -999 -999 -999 -999
2008-10-13 07:54:40 51°14.296 2°54.147 -999 -999 -999 -999
2008-10-13 07:54:50 51°14.28 2°54.097 -999 -999 -999 -999
2008-10-13 07:55:00 51°14.263 2°54.047 -999 -999 -999 -999
2008-10-13 07:55:10 51°14.247 2°53.997 -999 -999 -999 -999
2008-10-13 07:55:20 51°14.231 2°53.946 -999 -999 -999 -999
2008-10-13 07:55:30 51°14.214 2°53.896 -999 -999 -999 -999
2008-10-13 07:55:40 51°14.198 2°53.845 -999 -999 -999 -999
2008-10-13 07:55:50 51°14.182 2°53.795 -999 -999 -999 -999
2008-10-13 07:56:00 51°14.165 2°53.744 -999 -999 -999 -999
2008-10-13 07:56:10 51°14.148 2°53.694 -999 -999 -999 -999
2008-10-13 07:56:20 51°14.131 2°53.645 -999 -999 -999 -999
2008-10-13 07:56:30 51°14.114 2°53.595 -999 -999 -999 -999
2008-10-13 07:56:40 51°14.096 2°53.546 -999 -999 -999 -999
2008-10-13 07:56:50 51°14.078 2°53.496 -999 -999 -999 -999
2008-10-13 07:57:00 51°14.06 2°53.447 -999 -999 -999 -999
2008-10-13 07:57:10 51°14.042 2°53.398 -999 -999 -999 -999
2008-10-13 07:57:20 51°14.024 2°53.348 -999 -999 -999 -999
2008-10-13 07:57:30 51°14.006 2°53.299 -999 -999 -999 -999
2008-10-13 07:57:40 51°13.988 2°53.25 -999 -999 -999 -999
2008-10-13 07:57:50 51°13.97 2°53.201 -999 -999 -999 -999
2008-10-13 07:58:00 51°13.952 2°53.151 -999 -999 -999 -999
2008-10-13 07:58:10 51°13.934 2°53.102 -999 -999 -999 -999
2008-10-13 07:58:20 51°13.916 2°53.053 -999 -999 -999 -999
2008-10-13 07:58:30 51°13.899 2°53.003 -999 -999 -999 -999
2008-10-13 07:58:40 51°13.882 2°52.952 -999 -999 -999 -999
2008-10-13 07:58:50 51°13.865 2°52.901 -999 -999 -999 -999
2008-10-13 07:59:00 51°13.848 2°52.85 -999 -999 -999 -999
2008-10-13 07:59:10 51°13.832 2°52.8 -999 -999 -999 -999
2008-10-13 07:59:20 51°13.815 2°52.749 -999 -999 -999 -999
2008-10-13 07:59:30 51°13.798 2°52.698 -999 -999 -999 -999
2008-10-13 07:59:40 51°13.782 2°52.647 -999 -999 -999 -999
2008-10-13 07:59:50 51°13.765 2°52.596 -999 -999 -999 -999
2008-10-13 08:00:00 51°13.748 2°52.545 -999 -999 -999 -999
2008-10-13 08:00:10 51°13.731 2°52.495 -999 -999 -999 -999
2008-10-13 08:00:20 51°13.714 2°52.444 -999 -999 -999 -999
2008-10-13 08:00:30 51°13.697 2°52.393 -999 -999 -999 -999
2008-10-13 08:00:40 51°13.68 2°52.342 -999 -999 -999 -999
2008-10-13 08:00:50 51°13.663 2°52.291 -999 -999 -999 -999
2008-10-13 08:01:00 51°13.647 2°52.24 -999 -999 -999 -999
2008-10-13 08:01:10 51°13.63 2°52.19 -999 -999 -999 -999
2008-10-13 08:01:20 51°13.613 2°52.139 -999 -999 -999 -999
2008-10-13 08:01:30 51°13.596 2°52.088 -999 -999 -999 -999
2008-10-13 08:01:40 51°13.579 2°52.037 -999 -999 -999 -999
2008-10-13 08:01:50 51°13.562 2°51.987 -999 -999 -999 -999
2008-10-13 08:02:00 51°13.545 2°51.936 -999 -999 -999 -999
2008-10-13 08:02:10 51°13.528 2°51.885 -999 -999 -999 -999
2008-10-13 08:02:20 51°13.511 2°51.834 -999 -999 -999 -999
2008-10-13 08:02:30 51°13.494 2°51.784 -999 -999 -999 -999
2008-10-13 08:02:40 51°13.477 2°51.733 -999 -999 -999 -999
2008-10-13 08:02:50 51°13.46 2°51.682 -999 -999 -999 -999
2008-10-13 08:03:00 51°13.443 2°51.631 -999 -999 -999 -999
2008-10-13 08:03:10 51°13.426 2°51.581 -999 -999 -999 -999
2008-10-13 08:03:20 51°13.409 2°51.53 -999 -999 -999 -999
2008-10-13 08:03:30 51°13.391 2°51.479 -999 -999 -999 -999
2008-10-13 08:03:40 51°13.374 2°51.428 -999 -999 -999 -999
2008-10-13 08:03:50 51°13.358 2°51.377 -999 -999 -999 -999
2008-10-13 08:04:00 51°13.341 2°51.326 -999 -999 -999 -999
2008-10-13 08:04:10 51°13.324 2°51.275 -999 -999 -999 -999
2008-10-13 08:04:20 51°13.307 2°51.224 -999 -999 -999 -999
2008-10-13 08:04:30 51°13.29 2°51.173 -999 -999 -999 -999
2008-10-13 08:04:40 51°13.273 2°51.122 -999 -999 -999 -999
2008-10-13 08:04:50 51°13.255 2°51.072 -999 -999 -999 -999
2008-10-13 08:05:00 51°13.237 2°51.021 -999 -999 -999 -999
2008-10-13 08:05:10 51°13.221 2°50.97 -999 -999 -999 -999
2008-10-13 08:05:20 51°13.204 2°50.919 -999 -999 -999 -999
2008-10-13 08:05:30 51°13.189 2°50.867 -999 -999 -999 -999
2008-10-13 08:05:40 51°13.173 2°50.815 -999 -999 -999 -999
2008-10-13 08:05:50 51°13.157 2°50.763 -999 -999 -999 -999
2008-10-13 08:06:00 51°13.141 2°50.711 -999 -999 -999 -999
2008-10-13 08:06:10 51°13.125 2°50.659 -999 -999 -999 -999
2008-10-13 08:06:20 51°13.11 2°50.607 -999 -999 -999 -999
2008-10-13 08:06:30 51°13.094 2°50.555 -999 -999 -999 -999
2008-10-13 08:06:40 51°13.078 2°50.503 -999 -999 -999 -999
2008-10-13 08:06:50 51°13.062 2°50.451 -999 -999 -999 -999
2008-10-13 08:07:00 51°13.047 2°50.399 -999 -999 -999 -999
2008-10-13 08:07:10 51°13.031 2°50.348 -999 -999 -999 -999
2008-10-13 08:07:20 51°13.015 2°50.295 -999 -999 -999 -999
2008-10-13 08:07:30 51°12.999 2°50.244 -999 -999 -999 -999
2008-10-13 08:07:40 51°12.984 2°50.192 -999 -999 -999 -999
2008-10-13 08:07:50 51°12.968 2°50.14 -999 -999 -999 -999
2008-10-13 08:08:00 51°12.952 2°50.088 -999 -999 -999 -999
2008-10-13 08:08:10 51°12.937 2°50.036 -999 -999 -999 -999
2008-10-13 08:08:20 51°12.921 2°49.984 -999 -999 -999 -999
2008-10-13 08:08:30 51°12.905 2°49.932 -999 -999 -999 -999
2008-10-13 08:08:40 51°12.889 2°49.881 -999 -999 -999 -999
2008-10-13 08:08:50 51°12.873 2°49.829 -999 -999 -999 -999
2008-10-13 08:09:00 51°12.858 2°49.777 -999 -999 -999 -999
2008-10-13 08:09:10 51°12.842 2°49.725 -999 -999 -999 -999
2008-10-13 08:09:20 51°12.826 2°49.673 -999 -999 -999 -999
2008-10-13 08:09:30 51°12.811 2°49.621 -999 -999 -999 -999
2008-10-13 08:09:40 51°12.795 2°49.569 -999 -999 -999 -999
2008-10-13 08:09:50 51°12.779 2°49.517 -999 -999 -999 -999
2008-10-13 08:10:00 51°12.764 2°49.465 -999 -999 -999 -999
2008-10-13 08:10:10 51°12.748 2°49.413 -999 -999 -999 -999
2008-10-13 08:10:20 51°12.733 2°49.362 -999 -999 -999 -999
2008-10-13 08:10:30 51°12.717 2°49.31 -999 -999 -999 -999
2008-10-13 08:10:40 51°12.702 2°49.258 -999 -999 -999 -999
2008-10-13 08:10:50 51°12.686 2°49.207 -999 -999 -999 -999
2008-10-13 08:11:00 51°12.671 2°49.155 -999 -999 -999 -999
2008-10-13 08:11:10 51°12.655 2°49.103 -999 -999 -999 -999
2008-10-13 08:11:20 51°12.64 2°49.051 -999 -999 -999 -999
2008-10-13 08:11:30 51°12.625 2°49 -999 -999 -999 -999
2008-10-13 08:11:40 51°12.609 2°48.948 -999 -999 -999 -999
2008-10-13 08:11:50 51°12.594 2°48.897 -999 -999 -999 -999
2008-10-13 08:12:00 51°12.579 2°48.846 -999 -999 -999 -999
2008-10-13 08:12:10 51°12.563 2°48.794 -999 -999 -999 -999
2008-10-13 08:12:20 51°12.548 2°48.743 -999 -999 -999 -999
2008-10-13 08:12:30 51°12.532 2°48.692 -999 -999 -999 -999
2008-10-13 08:12:40 51°12.517 2°48.64 -999 -999 -999 -999
2008-10-13 08:12:50 51°12.502 2°48.589 -999 -999 -999 -999
2008-10-13 08:13:00 51°12.486 2°48.538 -999 -999 -999 -999
2008-10-13 08:13:10 51°12.471 2°48.486 -999 -999 -999 -999
2008-10-13 08:13:20 51°12.455 2°48.435 -999 -999 -999 -999
2008-10-13 08:13:30 51°12.44 2°48.383 -999 -999 -999 -999
2008-10-13 08:13:40 51°12.425 2°48.331 -999 -999 -999 -999
2008-10-13 08:13:50 51°12.409 2°48.28 -999 -999 -999 -999
2008-10-13 08:14:00 51°12.394 2°48.228 -999 -999 -999 -999
2008-10-13 08:14:10 51°12.378 2°48.176 -999 -999 -999 -999
2008-10-13 08:14:20 51°12.363 2°48.125 -999 -999 -999 -999
2008-10-13 08:14:30 51°12.347 2°48.073 -999 -999 -999 -999
2008-10-13 08:14:40 51°12.331 2°48.021 -999 -999 -999 -999
2008-10-13 08:14:50 51°12.316 2°47.969 -999 -999 -999 -999
2008-10-13 08:15:00 51°12.301 2°47.917 -999 -999 -999 -999
2008-10-13 08:15:10 51°12.285 2°47.865 -999 -999 -999 -999
2008-10-13 08:15:20 51°12.27 2°47.813 -999 -999 -999 -999
2008-10-13 08:15:30 51°12.255 2°47.761 -999 -999 -999 -999
2008-10-13 08:15:40 51°12.24 2°47.709 -999 -999 -999 -999
2008-10-13 08:15:50 51°12.224 2°47.657 -999 -999 -999 -999
2008-10-13 08:16:00 51°12.208 2°47.605 -999 -999 -999 -999
2008-10-13 08:16:10 51°12.194 2°47.553 -999 -999 -999 -999
2008-10-13 08:16:20 51°12.18 2°47.5 -999 -999 -999 -999
2008-10-13 08:16:30 51°12.166 2°47.447 -999 -999 -999 -999
2008-10-13 08:16:40 51°12.152 2°47.394 -999 -999 -999 -999
2008-10-13 08:16:50 51°12.138 2°47.342 -999 -999 -999 -999
2008-10-13 08:17:00 51°12.125 2°47.289 -999 -999 -999 -999
2008-10-13 08:17:10 51°12.111 2°47.236 -999 -999 -999 -999
2008-10-13 08:17:20 51°12.097 2°47.183 -999 -999 -999 -999
2008-10-13 08:17:30 51°12.084 2°47.13 -999 -999 -999 -999
2008-10-13 08:17:40 51°12.069 2°47.078 -999 -999 -999 -999
2008-10-13 08:17:50 51°12.054 2°47.026 -999 -999 -999 -999
2008-10-13 08:18:00 51°12.039 2°46.974 -999 -999 -999 -999
2008-10-13 08:18:10 51°12.024 2°46.923 -999 -999 -999 -999
2008-10-13 08:18:20 51°12.009 2°46.871 -999 -999 -999 -999
2008-10-13 08:18:30 51°11.994 2°46.819 -999 -999 -999 -999
2008-10-13 08:18:40 51°11.979 2°46.767 -999 -999 -999 -999
2008-10-13 08:18:50 51°11.964 2°46.715 -999 -999 -999 -999
2008-10-13 08:19:00 51°11.949 2°46.663 -999 -999 -999 -999
2008-10-13 08:19:10 51°11.934 2°46.611 -999 -999 -999 -999
2008-10-13 08:19:20 51°11.92 2°46.558 -999 -999 -999 -999
2008-10-13 08:19:30 51°11.905 2°46.506 -999 -999 -999 -999
2008-10-13 08:19:40 51°11.89 2°46.455 -999 -999 -999 -999
2008-10-13 08:19:50 51°11.876 2°46.403 -999 -999 -999 -999
2008-10-13 08:20:00 51°11.861 2°46.35 -999 -999 -999 -999
2008-10-13 08:20:10 51°11.847 2°46.298 -999 -999 -999 -999
2008-10-13 08:20:20 51°11.832 2°46.246 -999 -999 -999 -999
2008-10-13 08:20:30 51°11.818 2°46.195 -999 -999 -999 -999
2008-10-13 08:20:40 51°11.804 2°46.143 -999 -999 -999 -999
2008-10-13 08:20:50 51°11.789 2°46.092 -999 -999 -999 -999
2008-10-13 08:21:00 51°11.775 2°46.04 -999 -999 -999 -999
2008-10-13 08:21:10 51°11.763 2°45.987 -999 -999 -999 -999
2008-10-13 08:21:20 51°11.752 2°45.934 -999 -999 -999 -999
2008-10-13 08:21:30 51°11.742 2°45.88 -999 -999 -999 -999
2008-10-13 08:21:40 51°11.733 2°45.825 -999 -999 -999 -999
2008-10-13 08:21:50 51°11.725 2°45.771 -999 -999 -999 -999
2008-10-13 08:22:00 51°11.718 2°45.716 -999 -999 -999 -999
2008-10-13 08:22:10 51°11.711 2°45.661 -999 -999 -999 -999
2008-10-13 08:22:20 51°11.704 2°45.606 -999 -999 -999 -999
2008-10-13 08:22:30 51°11.697 2°45.551 -999 -999 -999 -999
2008-10-13 08:22:40 51°11.69 2°45.496 -999 -999 -999 -999
2008-10-13 08:22:50 51°11.682 2°45.442 -999 -999 -999 -999
2008-10-13 08:23:00 51°11.675 2°45.387 -999 -999 -999 -999
2008-10-13 08:23:10 51°11.668 2°45.332 -999 -999 -999 -999
2008-10-13 08:23:20 51°11.662 2°45.277 -999 -999 -999 -999
2008-10-13 08:23:30 51°11.656 2°45.222 -999 -999 -999 -999
2008-10-13 08:23:40 51°11.651 2°45.166 -999 -999 -999 -999
2008-10-13 08:23:50 51°11.646 2°45.111 -999 -999 -999 -999
2008-10-13 08:24:00 51°11.64 2°45.056 -999 -999 -999 -999
2008-10-13 08:24:10 51°11.634 2°45.001 -999 -999 -999 -999
2008-10-13 08:24:20 51°11.629 2°44.946 -999 -999 -999 -999
2008-10-13 08:24:30 51°11.624 2°44.891 -999 -999 -999 -999
2008-10-13 08:24:40 51°11.618 2°44.836 -999 -999 -999 -999
2008-10-13 08:24:50 51°11.612 2°44.781 -999 -999 -999 -999
2008-10-13 08:25:00 51°11.606 2°44.727 -999 -999 -999 -999
2008-10-13 08:25:10 51°11.601 2°44.672 -999 -999 -999 -999
2008-10-13 08:25:20 51°11.595 2°44.618 -999 -999 -999 -999
2008-10-13 08:25:30 51°11.589 2°44.563 -999 -999 -999 -999
2008-10-13 08:25:40 51°11.583 2°44.508 -999 -999 -999 -999
2008-10-13 08:25:50 51°11.577 2°44.454 -999 -999 -999 -999
2008-10-13 08:26:00 51°11.571 2°44.399 -999 -999 -999 -999
2008-10-13 08:26:10 51°11.565 2°44.345 -999 -999 -999 -999
2008-10-13 08:26:20 51°11.559 2°44.29 -999 -999 -999 -999
2008-10-13 08:26:30 51°11.553 2°44.236 -999 -999 -999 -999
2008-10-13 08:26:40 51°11.547 2°44.181 -999 -999 -999 -999
2008-10-13 08:26:50 51°11.54 2°44.128 -999 -999 -999 -999
2008-10-13 08:27:00 51°11.533 2°44.074 -999 -999 -999 -999
2008-10-13 08:27:10 51°11.525 2°44.021 -999 -999 -999 -999
2008-10-13 08:27:20 51°11.517 2°43.967 -999 -999 -999 -999
2008-10-13 08:27:30 51°11.51 2°43.914 -999 -999 -999 -999
2008-10-13 08:27:40 51°11.503 2°43.86 -999 -999 -999 -999
2008-10-13 08:27:50 51°11.497 2°43.806 -999 -999 -999 -999
2008-10-13 08:28:00 51°11.492 2°43.752 -999 -999 -999 -999
2008-10-13 08:28:10 51°11.487 2°43.698 -999 -999 -999 -999
2008-10-13 08:28:20 51°11.482 2°43.644 -999 -999 -999 -999
2008-10-13 08:28:30 51°11.477 2°43.589 -999 -999 -999 -999
2008-10-13 08:28:40 51°11.472 2°43.535 -999 -999 -999 -999
2008-10-13 08:28:50 51°11.466 2°43.481 -999 -999 -999 -999
2008-10-13 08:29:00 51°11.461 2°43.427 -999 -999 -999 -999
2008-10-13 08:29:10 51°11.456 2°43.373 -999 -999 -999 -999
2008-10-13 08:29:20 51°11.45 2°43.319 -999 -999 -999 -999
2008-10-13 08:29:30 51°11.445 2°43.265 -999 -999 -999 -999
2008-10-13 08:29:40 51°11.439 2°43.211 -999 -999 -999 -999
2008-10-13 08:29:50 51°11.434 2°43.157 -999 -999 -999 -999
2008-10-13 08:30:00 51°11.428 2°43.103 -999 -999 -999 -999
2008-10-13 08:30:10 51°11.421 2°43.05 -999 -999 -999 -999
2008-10-13 08:30:20 51°11.414 2°42.997 -999 -999 -999 -999
2008-10-13 08:30:30 51°11.405 2°42.944 -999 -999 -999 -999
2008-10-13 08:30:40 51°11.397 2°42.891 -999 -999 -999 -999
2008-10-13 08:30:50 51°11.388 2°42.838 -999 -999 -999 -999
2008-10-13 08:31:00 51°11.38 2°42.785 -999 -999 -999 -999
2008-10-13 08:31:10 51°11.371 2°42.732 -999 -999 -999 -999
2008-10-13 08:31:20 51°11.363 2°42.68 -999 -999 -999 -999
2008-10-13 08:31:30 51°11.354 2°42.627 -999 -999 -999 -999
2008-10-13 08:31:40 51°11.345 2°42.574 -999 -999 -999 -999
2008-10-13 08:31:50 51°11.337 2°42.521 -999 -999 -999 -999
2008-10-13 08:32:00 51°11.327 2°42.469 -999 -999 -999 -999
2008-10-13 08:32:10 51°11.316 2°42.417 -999 -999 -999 -999
2008-10-13 08:32:20 51°11.305 2°42.366 -999 -999 -999 -999
2008-10-13 08:32:30 51°11.293 2°42.315 -999 -999 -999 -999
2008-10-13 08:32:40 51°11.28 2°42.265 -999 -999 -999 -999
2008-10-13 08:32:50 51°11.268 2°42.214 -999 -999 -999 -999
2008-10-13 08:33:00 51°11.255 2°42.164 -999 -999 -999 -999
2008-10-13 08:33:10 51°11.242 2°42.114 -999 -999 -999 -999
2008-10-13 08:33:20 51°11.228 2°42.064 -999 -999 -999 -999
2008-10-13 08:33:30 51°11.213 2°42.015 -999 -999 -999 -999
2008-10-13 08:33:40 51°11.198 2°41.966 -999 -999 -999 -999
2008-10-13 08:33:50 51°11.182 2°41.918 -999 -999 -999 -999
2008-10-13 08:34:00 51°11.166 2°41.87 -999 -999 -999 -999
2008-10-13 08:34:10 51°11.151 2°41.821 -999 -999 -999 -999
2008-10-13 08:34:20 51°11.136 2°41.772 -999 -999 -999 -999
2008-10-13 08:34:30 51°11.121 2°41.723 -999 -999 -999 -999
2008-10-13 08:34:40 51°11.106 2°41.674 -999 -999 -999 -999
2008-10-13 08:34:50 51°11.091 2°41.625 -999 -999 -999 -999
2008-10-13 08:35:00 51°11.076 2°41.576 -999 -999 -999 -999
2008-10-13 08:35:10 51°11.061 2°41.527 -999 -999 -999 -999
2008-10-13 08:35:20 51°11.046 2°41.478 -999 -999 -999 -999
2008-10-13 08:35:30 51°11.031 2°41.428 -999 -999 -999 -999
2008-10-13 08:35:40 51°11.017 2°41.379 -999 -999 -999 -999
2008-10-13 08:35:50 51°11.002 2°41.33 -999 -999 -999 -999
2008-10-13 08:36:00 51°10.988 2°41.281 -999 -999 -999 -999
2008-10-13 08:36:10 51°10.973 2°41.232 -999 -999 -999 -999
2008-10-13 08:36:20 51°10.959 2°41.182 -999 -999 -999 -999
2008-10-13 08:36:30 51°10.944 2°41.133 -999 -999 -999 -999
2008-10-13 08:36:40 51°10.928 2°41.085 -999 -999 -999 -999
2008-10-13 08:36:50 51°10.913 2°41.036 -999 -999 -999 -999
2008-10-13 08:37:00 51°10.898 2°40.987 -999 -999 -999 -999
2008-10-13 08:37:10 51°10.884 2°40.938 -999 -999 -999 -999
2008-10-13 08:37:20 51°10.869 2°40.888 -999 -999 -999 -999
2008-10-13 08:37:30 51°10.855 2°40.839 -999 -999 -999 -999
2008-10-13 08:37:40 51°10.84 2°40.79 -999 -999 -999 -999
2008-10-13 08:37:50 51°10.825 2°40.741 -999 -999 -999 -999
2008-10-13 08:38:00 51°10.811 2°40.691 -999 -999 -999 -999
2008-10-13 08:38:10 51°10.796 2°40.642 -999 -999 -999 -999
2008-10-13 08:38:20 51°10.782 2°40.593 -999 -999 -999 -999
2008-10-13 08:38:30 51°10.766 2°40.545 -999 -999 -999 -999
2008-10-13 08:38:40 51°10.751 2°40.497 -999 -999 -999 -999
2008-10-13 08:38:50 51°10.736 2°40.454 -999 -999 -999 -999
2008-10-13 08:39:00 51°10.718 2°40.402 -999 -999 -999 -999
2008-10-13 08:39:10 51°10.704 2°40.359 -999 -999 -999 -999
2008-10-13 08:39:20 51°10.687 2°40.306 -999 -999 -999 -999
2008-10-13 08:39:30 51°10.67 2°40.253 -999 -999 -999 -999
2008-10-13 08:39:40 51°10.656 2°40.209 -999 -999 -999 -999
2008-10-13 08:39:50 51°10.64 2°40.161 -999 -999 -999 -999
2008-10-13 08:40:00 51°10.623 2°40.109 -999 -999 -999 -999
2008-10-13 08:40:10 51°10.609 2°40.066 -999 -999 -999 -999
2008-10-13 08:40:20 51°10.593 2°40.018 -999 -999 -999 -999
2008-10-13 08:40:30 51°10.578 2°39.969 -999 -999 -999 -999
2008-10-13 08:40:40 51°10.563 2°39.921 -999 -999 -999 -999
2008-10-13 08:40:50 51°10.546 2°39.868 -999 -999 -999 -999
2008-10-13 08:41:00 51°10.531 2°39.819 -999 -999 -999 -999
2008-10-13 08:41:10 51°10.515 2°39.771 -999 -999 -999 -999
2008-10-13 08:41:20 51°10.502 2°39.728 -999 -999 -999 -999
2008-10-13 08:41:30 51°10.487 2°39.679 -999 -999 -999 -999
2008-10-13 08:41:40 51°10.472 2°39.63 -999 -999 -999 -999
2008-10-13 08:41:50 51°10.457 2°39.582 -999 -999 -999 -999
2008-10-13 08:42:00 51°10.44 2°39.528 -999 -999 -999 -999
2008-10-13 08:42:10 51°10.425 2°39.48 -999 -999 -999 -999
2008-10-13 08:42:20 51°10.411 2°39.431 -999 -999 -999 -999
2008-10-13 08:42:30 51°10.398 2°39.387 -999 -999 -999 -999
2008-10-13 08:42:40 51°10.383 2°39.338 -999 -999 -999 -999
2008-10-13 08:42:50 51°10.368 2°39.29 -999 -999 -999 -999
2008-10-13 08:43:00 51°10.353 2°39.241 -999 -999 -999 -999
2008-10-13 08:43:10 51°10.339 2°39.192 -999 -999 -999 -999
2008-10-13 08:43:20 51°10.324 2°39.143 -999 -999 -999 -999
2008-10-13 08:43:30 51°10.31 2°39.094 -999 -999 -999 -999
2008-10-13 08:43:40 51°10.294 2°39.04 -999 -999 -999 -999
2008-10-13 08:43:50 51°10.281 2°38.995 -999 -999 -999 -999
2008-10-13 08:44:00 51°10.268 2°38.945 -999 -999 -999 -999
2008-10-13 08:44:10 51°10.255 2°38.895 -999 -999 -999 -999
2008-10-13 08:44:20 51°10.242 2°38.844 -999 -999 -999 -999
2008-10-13 08:44:30 51°10.23 2°38.794 -999 -999 -999 -999
2008-10-13 08:44:40 51°10.215 2°38.739 -999 -999 -999 -999
2008-10-13 08:44:50 51°10.203 2°38.694 -999 -999 -999 -999
2008-10-13 08:45:00 51°10.19 2°38.644 -999 -999 -999 -999
2008-10-13 08:45:10 51°10.176 2°38.594 -999 -999 -999 -999
2008-10-13 08:45:20 51°10.163 2°38.544 -999 -999 -999 -999
2008-10-13 08:45:30 51°10.148 2°38.488 -999 -999 -999 -999
2008-10-13 08:45:40 51°10.136 2°38.443 -999 -999 -999 -999
2008-10-13 08:45:50 51°10.122 2°38.393 -999 -999 -999 -999
2008-10-13 08:46:00 51°10.109 2°38.343 -999 -999 -999 -999
2008-10-13 08:46:10 51°10.095 2°38.294 -999 -999 -999 -999
2008-10-13 08:46:20 51°10.082 2°38.244 -999 -999 -999 -999
2008-10-13 08:46:30 51°10.066 2°38.189 -999 -999 -999 -999
2008-10-13 08:46:40 51°10.052 2°38.145 -999 -999 -999 -999
2008-10-13 08:46:50 51°10.037 2°38.097 -999 -999 -999 -999
2008-10-13 08:47:00 51°10.022 2°38.048 -999 -999 -999 -999
2008-10-13 08:47:10 51°10.007 2°38 -999 -999 -999 -999
2008-10-13 08:47:20 51°9.991 2°37.946 -999 -999 -999 -999
2008-10-13 08:47:30 51°9.977 2°37.896 -999 -999 -999 -999
2008-10-13 08:47:40 51°9.965 2°37.851 -999 -999 -999 -999
2008-10-13 08:47:50 51°9.952 2°37.801 -999 -999 -999 -999
2008-10-13 08:48:00 51°9.938 2°37.751 -999 -999 -999 -999
2008-10-13 08:48:10 51°9.925 2°37.701 -999 -999 -999 -999
2008-10-13 08:48:20 51°9.911 2°37.651 -999 -999 -999 -999
2008-10-13 08:48:30 51°9.896 2°37.596 -999 -999 -999 -999
2008-10-13 08:48:40 51°9.883 2°37.547 -999 -999 -999 -999
2008-10-13 08:48:50 51°9.87 2°37.502 -999 -999 -999 -999
2008-10-13 08:49:00 51°9.856 2°37.453 -999 -999 -999 -999
2008-10-13 08:49:10 51°9.842 2°37.403 -999 -999 -999 -999
2008-10-13 08:49:20 51°9.828 2°37.354 -999 -999 -999 -999
2008-10-13 08:49:30 51°9.813 2°37.3 -999 -999 -999 -999
2008-10-13 08:49:40 51°9.799 2°37.25 -999 -999 -999 -999
2008-10-13 08:49:50 51°9.786 2°37.206 -999 -999 -999 -999
2008-10-13 08:50:00 51°9.773 2°37.156 -999 -999 -999 -999
2008-10-13 08:50:10 51°9.759 2°37.107 -999 -999 -999 -999
2008-10-13 08:50:20 51°9.744 2°37.053 -999 -999 -999 -999
2008-10-13 08:50:30 51°9.729 2°37.004 -999 -999 -999 -999
2008-10-13 08:50:40 51°9.714 2°36.957 -999 -999 -999 -999
2008-10-13 08:50:50 51°9.7 2°36.913 -999 -999 -999 -999
2008-10-13 08:51:00 51°9.685 2°36.866 -999 -999 -999 -999
2008-10-13 08:51:10 51°9.67 2°36.818 -999 -999 -999 -999
2008-10-13 08:51:20 51°9.653 2°36.765 -999 -999 -999 -999
2008-10-13 08:51:30 51°9.639 2°36.716 -999 -999 -999 -999
2008-10-13 08:51:40 51°9.627 2°36.672 -999 -999 -999 -999
2008-10-13 08:51:50 51°9.614 2°36.623 -999 -999 -999 -999
2008-10-13 08:52:00 51°9.599 2°36.569 -999 -999 -999 -999
2008-10-13 08:52:10 51°9.585 2°36.52 -999 -999 -999 -999
2008-10-13 08:52:20 51°9.571 2°36.471 -999 -999 -999 -999
2008-10-13 08:52:30 51°9.559 2°36.427 -999 -999 -999 -999
2008-10-13 08:52:40 51°9.544 2°36.373 -999 -999 -999 -999
2008-10-13 08:52:50 51°9.531 2°36.323 -999 -999 -999 -999
2008-10-13 08:53:00 51°9.519 2°36.279 -999 -999 -999 -999
2008-10-13 08:53:10 51°9.505 2°36.231 -999 -999 -999 -999
2008-10-13 08:53:20 51°9.492 2°36.182 -999 -999 -999 -999
2008-10-13 08:53:30 51°9.478 2°36.134 -999 -999 -999 -999
2008-10-13 08:53:40 51°9.463 2°36.08 -999 -999 -999 -999
2008-10-13 08:53:50 51°9.45 2°36.032 -999 -999 -999 -999
2008-10-13 08:54:00 51°9.437 2°35.983 -999 -999 -999 -999
2008-10-13 08:54:10 51°9.423 2°35.934 -999 -999 -999 -999
2008-10-13 08:54:20 51°9.409 2°35.886 -999 -999 -999 -999
2008-10-13 08:54:30 51°9.396 2°35.838 -999 -999 -999 -999
2008-10-13 08:54:40 51°9.382 2°35.79 -999 -999 -999 -999
2008-10-13 08:54:50 51°9.368 2°35.742 -999 -999 -999 -999
2008-10-13 08:55:00 51°9.354 2°35.7 -999 -999 -999 -999
2008-10-13 08:55:10 51°9.339 2°35.653 -999 -999 -999 -999
2008-10-13 08:55:20 51°9.324 2°35.606 -999 -999 -999 -999
2008-10-13 08:55:30 51°9.309 2°35.56 -999 -999 -999 -999
2008-10-13 08:55:40 51°9.292 2°35.509 -999 -999 -999 -999
2008-10-13 08:55:50 51°9.277 2°35.462 -999 -999 -999 -999
2008-10-13 08:56:00 51°9.262 2°35.415 -999 -999 -999 -999
2008-10-13 08:56:10 51°9.247 2°35.369 -999 -999 -999 -999
2008-10-13 08:56:20 51°9.232 2°35.322 -999 -999 -999 -999
2008-10-13 08:56:30 51°9.217 2°35.275 -999 -999 -999 -999
2008-10-13 08:56:40 51°9.203 2°35.228 -999 -999 -999 -999
2008-10-13 08:56:50 51°9.19 2°35.185 -999 -999 -999 -999
2008-10-13 08:57:00 51°9.176 2°35.138 -999 -999 -999 -999
2008-10-13 08:57:10 51°9.16 2°35.086 -999 -999 -999 -999
2008-10-13 08:57:20 51°9.146 2°35.039 -999 -999 -999 -999
2008-10-13 08:57:30 51°9.132 2°34.992 -999 -999 -999 -999
2008-10-13 08:57:40 51°9.119 2°34.95 -999 -999 -999 -999
2008-10-13 08:57:50 51°9.104 2°34.902 -999 -999 -999 -999
2008-10-13 08:58:00 51°9.092 2°34.861 -999 -999 -999 -999
2008-10-13 08:58:10 51°9.081 2°34.824 -999 -999 -999 -999
2008-10-13 08:58:20 51°9.073 2°34.795 -999 -999 -999 -999
2008-10-13 08:58:30 51°9.064 2°34.763 -999 -999 -999 -999
2008-10-13 08:58:40 51°9.056 2°34.736 -999 -999 -999 -999
2008-10-13 08:58:50 51°9.049 2°34.712 -999 -999 -999 -999
2008-10-13 08:59:00 51°9.043 2°34.691 -999 -999 -999 -999
2008-10-13 08:59:10 51°9.037 2°34.668 -999 -999 -999 -999
2008-10-13 08:59:20 51°9.031 2°34.644 -999 -999 -999 -999
2008-10-13 08:59:30 51°9.025 2°34.624 -999 -999 -999 -999
2008-10-13 08:59:40 51°9.02 2°34.604 -999 -999 -999 -999
2008-10-13 08:59:50 51°9.016 2°34.586 -999 -999 -999 -999
2008-10-13 09:00:00 51°9.009 2°34.566 -999 -999 -999 -999
2008-10-13 09:00:10 51°9.003 2°34.548 -999 -999 -999 -999
2008-10-13 09:00:20 51°8.997 2°34.53 -999 -999 -999 -999
2008-10-13 09:00:30 51°8.99 2°34.513 -999 -999 -999 -999
2008-10-13 09:00:40 51°8.983 2°34.497 -999 -999 -999 -999
2008-10-13 09:00:50 51°8.976 2°34.48 -999 -999 -999 -999
2008-10-13 09:01:00 51°8.97 2°34.463 -999 -999 -999 -999
2008-10-13 09:01:10 51°8.964 2°34.447 -999 -999 -999 -999
2008-10-13 09:01:20 51°8.957 2°34.43 -999 -999 -999 -999
2008-10-13 09:01:30 51°8.951 2°34.414 -999 -999 -999 -999
2008-10-13 09:01:40 51°8.945 2°34.399 -999 -999 -999 -999
2008-10-13 09:01:50 51°8.938 2°34.38 -999 -999 -999 -999
2008-10-13 09:02:00 51°8.932 2°34.364 -999 -999 -999 -999
2008-10-13 09:02:10 51°8.926 2°34.347 -999 -999 -999 -999
2008-10-13 09:02:20 51°8.919 2°34.331 -999 -999 -999 -999
2008-10-13 09:02:30 51°8.913 2°34.318 -999 -999 -999 -999
2008-10-13 09:02:40 51°8.906 2°34.301 -999 -999 -999 -999
2008-10-13 09:02:50 51°8.899 2°34.286 -999 -999 -999 -999
2008-10-13 09:03:00 51°8.893 2°34.272 -999 -999 -999 -999
2008-10-13 09:03:10 51°8.887 2°34.259 -999 -999 -999 -999
2008-10-13 09:03:20 51°8.881 2°34.247 -999 -999 -999 -999
2008-10-13 09:03:30 51°8.876 2°34.238 -999 -999 -999 -999
2008-10-13 09:03:40 51°8.873 2°34.23 -999 -999 -999 -999
2008-10-13 09:03:50 51°8.871 2°34.226 -999 -999 -999 -999
2008-10-13 09:04:00 51°8.872 2°34.225 -999 -999 -999 -999
2008-10-13 09:04:10 51°8.872 2°34.227 -999 -999 -999 -999
2008-10-13 09:04:20 51°8.873 2°34.229 -999 -999 -999 -999
2008-10-13 09:04:30 51°8.874 2°34.23 -999 -999 -999 -999
2008-10-13 09:04:40 51°8.875 2°34.232 -999 -999 -999 -999
2008-10-13 09:04:50 51°8.876 2°34.234 -999 -999 -999 -999
2008-10-13 09:05:00 51°8.877 2°34.236 -999 -999 -999 -999
2008-10-13 09:05:10 51°8.878 2°34.239 -999 -999 -999 -999
2008-10-13 09:05:20 51°8.88 2°34.241 -999 -999 -999 -999
2008-10-13 09:05:30 51°8.881 2°34.243 -999 -999 -999 -999
2008-10-13 09:05:40 51°8.882 2°34.245 -999 -999 -999 -999
2008-10-13 09:05:50 51°8.884 2°34.247 -999 -999 -999 -999
2008-10-13 09:06:00 51°8.885 2°34.248 -999 -999 -999 -999
2008-10-13 09:06:10 51°8.886 2°34.25 -999 -999 -999 -999
2008-10-13 09:06:20 51°8.887 2°34.252 -999 -999 -999 -999
2008-10-13 09:06:30 51°8.889 2°34.255 -999 -999 -999 -999
2008-10-13 09:06:40 51°8.89 2°34.257 -999 -999 -999 -999
2008-10-13 09:06:50 51°8.892 2°34.26 -999 -999 -999 -999
2008-10-13 09:07:00 51°8.894 2°34.263 -999 -999 -999 -999
2008-10-13 09:07:10 51°8.896 2°34.265 -999 -999 -999 -999
2008-10-13 09:07:20 51°8.898 2°34.267 -999 -999 -999 -999
2008-10-13 09:07:30 51°8.899 2°34.269 -999 -999 -999 -999
2008-10-13 09:07:40 51°8.901 2°34.271 -999 -999 -999 -999
2008-10-13 09:07:50 51°8.903 2°34.274 -999 -999 -999 -999
2008-10-13 09:08:00 51°8.905 2°34.277 -999 -999 -999 -999
2008-10-13 09:08:10 51°8.907 2°34.279 -999 -999 -999 -999
2008-10-13 09:08:20 51°8.909 2°34.283 -999 -999 -999 -999
2008-10-13 09:08:30 51°8.911 2°34.285 -999 -999 -999 -999
2008-10-13 09:08:40 51°8.913 2°34.288 -999 -999 -999 -999
2008-10-13 09:08:50 51°8.915 2°34.291 -999 -999 -999 -999
2008-10-13 09:09:00 51°8.917 2°34.294 -999 -999 -999 -999
2008-10-13 09:09:10 51°8.919 2°34.296 -999 -999 -999 -999
2008-10-13 09:09:20 51°8.92 2°34.299 -999 -999 -999 -999
2008-10-13 09:09:30 51°8.923 2°34.302 -999 -999 -999 -999
2008-10-13 09:09:40 51°8.925 2°34.304 -999 -999 -999 -999
2008-10-13 09:09:50 51°8.927 2°34.308 -999 -999 -999 -999
2008-10-13 09:10:00 51°8.929 2°34.311 -999 -999 -999 -999
2008-10-13 09:10:10 51°8.931 2°34.314 -999 -999 -999 -999
2008-10-13 09:10:20 51°8.933 2°34.317 -999 -999 -999 -999
2008-10-13 09:10:30 51°8.934 2°34.319 -999 -999 -999 -999
2008-10-13 09:10:40 51°8.937 2°34.323 -999 -999 -999 -999
2008-10-13 09:10:50 51°8.939 2°34.326 -999 -999 -999 -999
2008-10-13 09:11:00 51°8.941 2°34.329 -999 -999 -999 -999
2008-10-13 09:11:10 51°8.943 2°34.332 -999 -999 -999 -999
2008-10-13 09:11:20 51°8.945 2°34.335 -999 -999 -999 -999
2008-10-13 09:11:30 51°8.947 2°34.337 -999 -999 -999 -999
2008-10-13 09:11:40 51°8.949 2°34.341 -999 -999 -999 -999
2008-10-13 09:11:50 51°8.951 2°34.344 -999 -999 -999 -999
2008-10-13 09:12:00 51°8.954 2°34.347 -999 -999 -999 -999
2008-10-13 09:12:10 51°8.956 2°34.351 -999 -999 -999 -999
2008-10-13 09:12:20 51°8.958 2°34.352 -999 -999 -999 -999
2008-10-13 09:12:30 51°8.96 2°34.348 -999 -999 -999 -999
2008-10-13 09:12:40 51°8.961 2°34.338 -999 -999 -999 -999
2008-10-13 09:12:50 51°8.957 2°34.326 -999 -999 -999 -999
2008-10-13 09:13:00 51°8.951 2°34.316 -999 -999 -999 -999
2008-10-13 09:13:10 51°8.94 2°34.307 -999 -999 -999 -999
2008-10-13 09:13:20 51°8.928 2°34.301 -999 -999 -999 -999
2008-10-13 09:13:30 51°8.911 2°34.293 -999 -999 -999 -999
2008-10-13 09:13:40 51°8.895 2°34.284 -999 -999 -999 -999
2008-10-13 09:13:50 51°8.877 2°34.275 -999 -999 -999 -999
2008-10-13 09:14:00 51°8.858 2°34.266 -999 -999 -999 -999
2008-10-13 09:14:10 51°8.842 2°34.257 -999 -999 -999 -999
2008-10-13 09:14:20 51°8.827 2°34.247 -999 -999 -999 -999
2008-10-13 09:14:30 51°8.817 2°34.238 -999 -999 -999 -999
2008-10-13 09:14:40 51°8.808 2°34.229 -999 -999 -999 -999
2008-10-13 09:14:50 51°8.8 2°34.22 -999 -999 -999 -999
2008-10-13 09:15:00 51°8.794 2°34.212 -999 -999 -999 -999
2008-10-13 09:15:10 51°8.789 2°34.205 -999 -999 -999 -999
2008-10-13 09:15:20 51°8.787 2°34.199 -999 -999 -999 -999
2008-10-13 09:15:30 51°8.785 2°34.195 -999 -999 -999 -999
2008-10-13 09:15:40 51°8.785 2°34.192 -999 -999 -999 -999
2008-10-13 09:15:50 51°8.786 2°34.19 -999 -999 -999 -999
2008-10-13 09:16:00 51°8.787 2°34.187 -999 -999 -999 -999
2008-10-13 09:16:10 51°8.788 2°34.185 -999 -999 -999 -999
2008-10-13 09:16:20 51°8.79 2°34.183 -999 -999 -999 -999
2008-10-13 09:16:30 51°8.791 2°34.182 -999 -999 -999 -999
2008-10-13 09:16:40 51°8.793 2°34.181 -999 -999 -999 -999
2008-10-13 09:16:50 51°8.795 2°34.18 -999 -999 -999 -999
2008-10-13 09:17:00 51°8.797 2°34.179 -999 -999 -999 -999
2008-10-13 09:17:10 51°8.799 2°34.179 -999 -999 -999 -999
2008-10-13 09:17:20 51°8.801 2°34.178 -999 -999 -999 -999
2008-10-13 09:17:30 51°8.802 2°34.178 -999 -999 -999 -999
2008-10-13 09:17:40 51°8.805 2°34.178 -999 -999 -999 -999
2008-10-13 09:17:50 51°8.806 2°34.178 -999 -999 -999 -999
2008-10-13 09:18:00 51°8.808 2°34.179 -999 -999 -999 -999
2008-10-13 09:18:10 51°8.81 2°34.179 -999 -999 -999 -999
2008-10-13 09:18:20 51°8.812 2°34.18 -999 -999 -999 -999
2008-10-13 09:18:30 51°8.814 2°34.181 -999 -999 -999 -999
2008-10-13 09:18:40 51°8.815 2°34.182 -999 -999 -999 -999
2008-10-13 09:18:50 51°8.817 2°34.183 -999 -999 -999 -999
2008-10-13 09:19:00 51°8.819 2°34.184 -999 -999 -999 -999
2008-10-13 09:19:10 51°8.821 2°34.185 -999 -999 -999 -999
2008-10-13 09:19:20 51°8.823 2°34.187 -999 -999 -999 -999
2008-10-13 09:19:30 51°8.825 2°34.188 -999 -999 -999 -999
2008-10-13 09:19:40 51°8.827 2°34.19 -999 -999 -999 -999
2008-10-13 09:19:50 51°8.829 2°34.192 -999 -999 -999 -999
2008-10-13 09:20:00 51°8.83 2°34.194 -999 -999 -999 -999
2008-10-13 09:20:10 51°8.832 2°34.196 -999 -999 -999 -999
2008-10-13 09:20:20 51°8.835 2°34.198 -999 -999 -999 -999
2008-10-13 09:20:30 51°8.836 2°34.201 -999 -999 -999 -999
2008-10-13 09:20:40 51°8.838 2°34.203 -999 -999 -999 -999
2008-10-13 09:20:50 51°8.839 2°34.206 -999 -999 -999 -999
2008-10-13 09:21:00 51°8.841 2°34.209 -999 -999 -999 -999
2008-10-13 09:21:10 51°8.842 2°34.212 -999 -999 -999 -999
2008-10-13 09:21:20 51°8.845 2°34.215 -999 -999 -999 -999
2008-10-13 09:21:30 51°8.847 2°34.218 -999 -999 -999 -999
2008-10-13 09:21:40 51°8.849 2°34.22 -999 -999 -999 -999
2008-10-13 09:21:50 51°8.851 2°34.223 -999 -999 -999 -999
2008-10-13 09:22:00 51°8.853 2°34.227 -999 -999 -999 -999
2008-10-13 09:22:10 51°8.855 2°34.23 -999 -999 -999 -999
2008-10-13 09:22:20 51°8.858 2°34.233 -999 -999 -999 -999
2008-10-13 09:22:30 51°8.859 2°34.236 -999 -999 -999 -999
2008-10-13 09:22:40 51°8.861 2°34.239 -999 -999 -999 -999
2008-10-13 09:22:50 51°8.864 2°34.243 -999 -999 -999 -999
2008-10-13 09:23:00 51°8.866 2°34.247 -999 -999 -999 -999
2008-10-13 09:23:10 51°8.868 2°34.251 -999 -999 -999 -999
2008-10-13 09:23:20 51°8.87 2°34.254 -999 -999 -999 -999
2008-10-13 09:23:30 51°8.872 2°34.257 -999 -999 -999 -999
2008-10-13 09:23:40 51°8.874 2°34.261 -999 -999 -999 -999
2008-10-13 09:23:50 51°8.877 2°34.265 -999 -999 -999 -999
2008-10-13 09:24:00 51°8.879 2°34.269 -999 -999 -999 -999
2008-10-13 09:24:10 51°8.881 2°34.273 -999 -999 -999 -999
2008-10-13 09:24:20 51°8.884 2°34.276 -999 -999 -999 -999
2008-10-13 09:24:30 51°8.886 2°34.281 -999 -999 -999 -999
2008-10-13 09:24:40 51°8.888 2°34.285 -999 -999 -999 -999
2008-10-13 09:24:50 51°8.891 2°34.289 -999 -999 -999 -999
2008-10-13 09:25:00 51°8.893 2°34.294 -999 -999 -999 -999
2008-10-13 09:25:10 51°8.896 2°34.298 -999 -999 -999 -999
2008-10-13 09:25:20 51°8.898 2°34.302 -999 -999 -999 -999
2008-10-13 09:25:30 51°8.901 2°34.307 -999 -999 -999 -999
2008-10-13 09:25:40 51°8.904 2°34.311 -999 -999 -999 -999
2008-10-13 09:25:50 51°8.906 2°34.316 -999 -999 -999 -999
2008-10-13 09:26:00 51°8.909 2°34.32 -999 -999 -999 -999
2008-10-13 09:26:10 51°8.911 2°34.325 -999 -999 -999 -999
2008-10-13 09:26:20 51°8.914 2°34.33 -999 -999 -999 -999
2008-10-13 09:26:30 51°8.917 2°34.335 -999 -999 -999 -999
2008-10-13 09:26:40 51°8.919 2°34.34 -999 -999 -999 -999
2008-10-13 09:26:50 51°8.922 2°34.345 -999 -999 -999 -999
2008-10-13 09:27:00 51°8.924 2°34.35 -999 -999 -999 -999
2008-10-13 09:27:10 51°8.927 2°34.355 -999 -999 -999 -999
2008-10-13 09:27:20 51°8.93 2°34.36 -999 -999 -999 -999
2008-10-13 09:27:30 51°8.933 2°34.365 -999 -999 -999 -999
2008-10-13 09:27:40 51°8.935 2°34.37 -999 -999 -999 -999
2008-10-13 09:27:50 51°8.938 2°34.376 -999 -999 -999 -999
2008-10-13 09:28:00 51°8.941 2°34.381 -999 -999 -999 -999
2008-10-13 09:28:10 51°8.944 2°34.387 -999 -999 -999 -999
2008-10-13 09:28:20 51°8.946 2°34.392 -999 -999 -999 -999
2008-10-13 09:28:30 51°8.949 2°34.397 -999 -999 -999 -999
2008-10-13 09:28:40 51°8.952 2°34.403 -999 -999 -999 -999
2008-10-13 09:28:50 51°8.955 2°34.408 -999 -999 -999 -999
2008-10-13 09:29:00 51°8.958 2°34.414 -999 -999 -999 -999
2008-10-13 09:29:10 51°8.961 2°34.42 -999 -999 -999 -999
2008-10-13 09:29:20 51°8.963 2°34.425 -999 -999 -999 -999
2008-10-13 09:29:30 51°8.966 2°34.431 -999 -999 -999 -999
2008-10-13 09:29:40 51°8.969 2°34.437 -999 -999 -999 -999
2008-10-13 09:29:50 51°8.971 2°34.442 -999 -999 -999 -999
2008-10-13 09:30:00 51°8.974 2°34.448 -999 -999 -999 -999
2008-10-13 09:30:10 51°8.977 2°34.454 -999 -999 -999 -999
2008-10-13 09:30:20 51°8.98 2°34.46 -999 -999 -999 -999
2008-10-13 09:30:30 51°8.982 2°34.466 -999 -999 -999 -999
2008-10-13 09:30:40 51°8.986 2°34.473 -999 -999 -999 -999
2008-10-13 09:30:50 51°8.988 2°34.479 -999 -999 -999 -999
2008-10-13 09:31:00 51°8.991 2°34.484 -999 -999 -999 -999
2008-10-13 09:31:10 51°8.994 2°34.486 -999 -999 -999 -999
2008-10-13 09:31:20 51°8.998 2°34.485 -999 -999 -999 -999
2008-10-13 09:31:30 51°9 2°34.48 -999 -999 -999 -999
2008-10-13 09:31:40 51°9 2°34.471 -999 -999 -999 -999
2008-10-13 09:31:50 51°8.996 2°34.462 -999 -999 -999 -999
2008-10-13 09:32:00 51°8.989 2°34.452 -999 -999 -999 -999
2008-10-13 09:32:10 51°8.98 2°34.44 -999 -999 -999 -999
2008-10-13 09:32:20 51°8.97 2°34.425 -999 -999 -999 -999
2008-10-13 09:32:30 51°8.959 2°34.406 -999 -999 -999 -999
2008-10-13 09:32:40 51°8.947 2°34.382 -999 -999 -999 -999
2008-10-13 09:32:50 51°8.936 2°34.355 -999 -999 -999 -999
2008-10-13 09:33:00 51°8.924 2°34.326 -999 -999 -999 -999
2008-10-13 09:33:10 51°8.913 2°34.296 -999 -999 -999 -999
2008-10-13 09:33:20 51°8.903 2°34.269 -999 -999 -999 -999
2008-10-13 09:33:30 51°8.896 2°34.251 -999 -999 -999 -999
2008-10-13 09:33:40 51°8.891 2°34.234 -999 -999 -999 -999
2008-10-13 09:33:50 51°8.888 2°34.222 -999 -999 -999 -999
2008-10-13 09:34:00 51°8.887 2°34.212 -999 -999 -999 -999
2008-10-13 09:34:10 51°8.887 2°34.208 -999 -999 -999 -999
2008-10-13 09:34:20 51°8.889 2°34.205 -999 -999 -999 -999
2008-10-13 09:34:30 51°8.89 2°34.202 -999 -999 -999 -999
2008-10-13 09:34:40 51°8.893 2°34.2 -999 -999 -999 -999
2008-10-13 09:34:50 51°8.895 2°34.199 -999 -999 -999 -999
2008-10-13 09:35:00 51°8.898 2°34.197 -999 -999 -999 -999
2008-10-13 09:35:10 51°8.901 2°34.197 -999 -999 -999 -999
2008-10-13 09:35:20 51°8.904 2°34.197 -999 -999 -999 -999
2008-10-13 09:35:30 51°8.907 2°34.198 -999 -999 -999 -999
2008-10-13 09:35:40 51°8.91 2°34.199 -999 -999 -999 -999
2008-10-13 09:35:50 51°8.913 2°34.2 -999 -999 -999 -999
2008-10-13 09:36:00 51°8.917 2°34.202 -999 -999 -999 -999
2008-10-13 09:36:10 51°8.92 2°34.203 -999 -999 -999 -999
2008-10-13 09:36:20 51°8.923 2°34.206 -999 -999 -999 -999
2008-10-13 09:36:30 51°8.926 2°34.207 -999 -999 -999 -999
2008-10-13 09:36:40 51°8.929 2°34.209 -999 -999 -999 -999
2008-10-13 09:36:50 51°8.932 2°34.212 -999 -999 -999 -999
2008-10-13 09:37:00 51°8.935 2°34.214 -999 -999 -999 -999
2008-10-13 09:37:10 51°8.939 2°34.217 -999 -999 -999 -999
2008-10-13 09:37:20 51°8.942 2°34.219 -999 -999 -999 -999
2008-10-13 09:37:30 51°8.945 2°34.222 -999 -999 -999 -999
2008-10-13 09:37:40 51°8.948 2°34.225 -999 -999 -999 -999
2008-10-13 09:37:50 51°8.951 2°34.228 -999 -999 -999 -999
2008-10-13 09:38:00 51°8.954 2°34.231 -999 -999 -999 -999
2008-10-13 09:38:10 51°8.957 2°34.234 -999 -999 -999 -999
2008-10-13 09:38:20 51°8.96 2°34.238 -999 -999 -999 -999
2008-10-13 09:38:30 51°8.963 2°34.241 -999 -999 -999 -999
2008-10-13 09:38:40 51°8.966 2°34.245 -999 -999 -999 -999
2008-10-13 09:38:50 51°8.969 2°34.248 -999 -999 -999 -999
2008-10-13 09:39:00 51°8.972 2°34.252 -999 -999 -999 -999
2008-10-13 09:39:10 51°8.975 2°34.256 -999 -999 -999 -999
2008-10-13 09:39:20 51°8.978 2°34.26 -999 -999 -999 -999
2008-10-13 09:39:30 51°8.981 2°34.264 -999 -999 -999 -999
2008-10-13 09:39:40 51°8.984 2°34.268 -999 -999 -999 -999
2008-10-13 09:39:50 51°8.987 2°34.272 -999 -999 -999 -999
2008-10-13 09:40:00 51°8.99 2°34.277 -999 -999 -999 -999
2008-10-13 09:40:10 51°8.993 2°34.281 -999 -999 -999 -999
2008-10-13 09:40:20 51°8.996 2°34.285 -999 -999 -999 -999
2008-10-13 09:40:30 51°8.999 2°34.289 -999 -999 -999 -999
2008-10-13 09:40:40 51°9.002 2°34.294 -999 -999 -999 -999
2008-10-13 09:40:50 51°9.005 2°34.299 -999 -999 -999 -999
2008-10-13 09:41:00 51°9.008 2°34.303 -999 -999 -999 -999
2008-10-13 09:41:10 51°9.011 2°34.308 -999 -999 -999 -999
2008-10-13 09:41:20 51°9.014 2°34.312 -999 -999 -999 -999
2008-10-13 09:41:30 51°9.017 2°34.317 -999 -999 -999 -999
2008-10-13 09:41:40 51°9.02 2°34.322 -999 -999 -999 -999
2008-10-13 09:41:50 51°9.022 2°34.326 -999 -999 -999 -999
2008-10-13 09:42:00 51°9.026 2°34.331 -999 -999 -999 -999
2008-10-13 09:42:10 51°9.028 2°34.336 -999 -999 -999 -999
2008-10-13 09:42:20 51°9.031 2°34.341 -999 -999 -999 -999
2008-10-13 09:42:30 51°9.034 2°34.345 -999 -999 -999 -999
2008-10-13 09:42:40 51°9.037 2°34.35 -999 -999 -999 -999
2008-10-13 09:42:50 51°9.04 2°34.355 -999 -999 -999 -999
2008-10-13 09:43:00 51°9.043 2°34.36 -999 -999 -999 -999
2008-10-13 09:43:10 51°9.046 2°34.365 -999 -999 -999 -999
2008-10-13 09:43:20 51°9.049 2°34.37 -999 -999 -999 -999
2008-10-13 09:43:30 51°9.052 2°34.373 -999 -999 -999 -999
2008-10-13 09:43:40 51°9.056 2°34.376 -999 -999 -999 -999
2008-10-13 09:43:50 51°9.059 2°34.377 -999 -999 -999 -999
2008-10-13 09:44:00 51°9.062 2°34.379 -999 -999 -999 -999
2008-10-13 09:44:10 51°9.065 2°34.379 -999 -999 -999 -999
2008-10-13 09:44:20 51°9.069 2°34.379 -999 -999 -999 -999
2008-10-13 09:44:30 51°9.072 2°34.379 -999 -999 -999 -999
2008-10-13 09:44:40 51°9.075 2°34.378 -999 -999 -999 -999
2008-10-13 09:44:50 51°9.078 2°34.377 -999 -999 -999 -999
2008-10-13 09:45:00 51°9.081 2°34.376 -999 -999 -999 -999
2008-10-13 09:45:10 51°9.084 2°34.375 -999 -999 -999 -999
2008-10-13 09:45:20 51°9.087 2°34.374 -999 -999 -999 -999
2008-10-13 09:45:30 51°9.089 2°34.372 -999 -999 -999 -999
2008-10-13 09:45:40 51°9.092 2°34.37 -999 -999 -999 -999
2008-10-13 09:45:50 51°9.094 2°34.368 -999 -999 -999 -999
2008-10-13 09:46:00 51°9.096 2°34.366 -999 -999 -999 -999
2008-10-13 09:46:10 51°9.098 2°34.364 -999 -999 -999 -999
2008-10-13 09:46:20 51°9.099 2°34.362 -999 -999 -999 -999
2008-10-13 09:46:30 51°9.101 2°34.36 -999 -999 -999 -999
2008-10-13 09:46:40 51°9.103 2°34.358 -999 -999 -999 -999
2008-10-13 09:46:50 51°9.105 2°34.356 -999 -999 -999 -999
2008-10-13 09:47:00 51°9.106 2°34.354 -999 -999 -999 -999
2008-10-13 09:47:10 51°9.107 2°34.352 -999 -999 -999 -999
2008-10-13 09:47:20 51°9.108 2°34.35 -999 -999 -999 -999
2008-10-13 09:47:30 51°9.109 2°34.348 -999 -999 -999 -999
2008-10-13 09:47:40 51°9.11 2°34.346 -999 -999 -999 -999
2008-10-13 09:47:50 51°9.11 2°34.344 -999 -999 -999 -999
2008-10-13 09:48:00 51°9.111 2°34.342 -999 -999 -999 -999
2008-10-13 09:48:10 51°9.111 2°34.34 -999 -999 -999 -999
2008-10-13 09:48:20 51°9.112 2°34.338 -999 -999 -999 -999
2008-10-13 09:48:30 51°9.112 2°34.336 -999 -999 -999 -999
2008-10-13 09:48:40 51°9.112 2°34.335 -999 -999 -999 -999
2008-10-13 09:48:50 51°9.112 2°34.333 -999 -999 -999 -999
2008-10-13 09:49:00 51°9.112 2°34.332 -999 -999 -999 -999
2008-10-13 09:49:10 51°9.112 2°34.33 -999 -999 -999 -999
2008-10-13 09:49:20 51°9.112 2°34.329 -999 -999 -999 -999
2008-10-13 09:49:30 51°9.112 2°34.327 -999 -999 -999 -999
2008-10-13 09:49:40 51°9.111 2°34.326 -999 -999 -999 -999
2008-10-13 09:49:50 51°9.111 2°34.325 -999 -999 -999 -999
2008-10-13 09:50:00 51°9.11 2°34.324 -999 -999 -999 -999
2008-10-13 09:50:10 51°9.109 2°34.323 -999 -999 -999 -999
2008-10-13 09:50:20 51°9.108 2°34.322 -999 -999 -999 -999
2008-10-13 09:50:30 51°9.107 2°34.321 -999 -999 -999 -999
2008-10-13 09:50:40 51°9.106 2°34.32 -999 -999 -999 -999
2008-10-13 09:50:50 51°9.104 2°34.319 -999 -999 -999 -999
2008-10-13 09:51:00 51°9.103 2°34.319 -999 -999 -999 -999
2008-10-13 09:51:10 51°9.101 2°34.318 -999 -999 -999 -999
2008-10-13 09:51:20 51°9.1 2°34.318 -999 -999 -999 -999
2008-10-13 09:51:30 51°9.098 2°34.318 -999 -999 -999 -999
2008-10-13 09:51:40 51°9.096 2°34.318 -999 -999 -999 -999
2008-10-13 09:51:50 51°9.094 2°34.319 -999 -999 -999 -999
2008-10-13 09:52:00 51°9.092 2°34.319 -999 -999 -999 -999
2008-10-13 09:52:10 51°9.09 2°34.32 -999 -999 -999 -999
2008-10-13 09:52:20 51°9.088 2°34.321 -999 -999 -999 -999
2008-10-13 09:52:30 51°9.086 2°34.322 -999 -999 -999 -999
2008-10-13 09:52:40 51°9.083 2°34.323 -999 -999 -999 -999
2008-10-13 09:52:50 51°9.081 2°34.325 -999 -999 -999 -999
2008-10-13 09:53:00 51°9.079 2°34.326 -999 -999 -999 -999
2008-10-13 09:53:10 51°9.076 2°34.328 -999 -999 -999 -999
2008-10-13 09:53:20 51°9.073 2°34.33 -999 -999 -999 -999
2008-10-13 09:53:30 51°9.071 2°34.333 -999 -999 -999 -999
2008-10-13 09:53:40 51°9.067 2°34.335 -999 -999 -999 -999
2008-10-13 09:53:50 51°9.064 2°34.338 -999 -999 -999 -999
2008-10-13 09:54:00 51°9.059 2°34.341 -999 -999 -999 -999
2008-10-13 09:54:10 51°9.054 2°34.344 -999 -999 -999 -999
2008-10-13 09:54:20 51°9.048 2°34.347 -999 -999 -999 -999
2008-10-13 09:54:30 51°9.04 2°34.35 -999 -999 -999 -999
2008-10-13 09:54:40 51°9.033 2°34.352 -999 -999 -999 -999
2008-10-13 09:54:50 51°9.024 2°34.353 -999 -999 -999 -999
2008-10-13 09:55:00 51°9.016 2°34.352 -999 -999 -999 -999
2008-10-13 09:55:10 51°9.008 2°34.349 -999 -999 -999 -999
2008-10-13 09:55:20 51°9.001 2°34.344 -999 -999 -999 -999
2008-10-13 09:55:30 51°8.994 2°34.338 -999 -999 -999 -999
2008-10-13 09:55:40 51°8.987 2°34.33 -999 -999 -999 -999
2008-10-13 09:55:50 51°8.98 2°34.322 -999 -999 -999 -999
2008-10-13 09:56:00 51°8.975 2°34.313 -999 -999 -999 -999
2008-10-13 09:56:10 51°8.969 2°34.302 -999 -999 -999 -999
2008-10-13 09:56:20 51°8.965 2°34.291 -999 -999 -999 -999
2008-10-13 09:56:30 51°8.961 2°34.28 -999 -999 -999 -999
2008-10-13 09:56:40 51°8.957 2°34.269 -999 -999 -999 -999
2008-10-13 09:56:50 51°8.953 2°34.257 -999 -999 -999 -999
2008-10-13 09:57:00 51°8.949 2°34.245 -999 -999 -999 -999
2008-10-13 09:57:10 51°8.945 2°34.233 -999 -999 -999 -999
2008-10-13 09:57:20 51°8.941 2°34.221 -999 -999 -999 -999
2008-10-13 09:57:30 51°8.937 2°34.209 -999 -999 -999 -999
2008-10-13 09:57:40 51°8.933 2°34.197 -999 -999 -999 -999
2008-10-13 09:57:50 51°8.928 2°34.185 -999 -999 -999 -999
2008-10-13 09:58:00 51°8.924 2°34.173 -999 -999 -999 -999
2008-10-13 09:58:10 51°8.92 2°34.16 -999 -999 -999 -999
2008-10-13 09:58:20 51°8.915 2°34.148 -999 -999 -999 -999
2008-10-13 09:58:30 51°8.911 2°34.136 -999 -999 -999 -999
2008-10-13 09:58:40 51°8.907 2°34.124 -999 -999 -999 -999
2008-10-13 09:58:50 51°8.902 2°34.111 -999 -999 -999 -999
2008-10-13 09:59:00 51°8.898 2°34.099 -999 -999 -999 -999
2008-10-13 09:59:10 51°8.894 2°34.087 -999 -999 -999 -999
2008-10-13 09:59:20 51°8.89 2°34.075 -999 -999 -999 -999
2008-10-13 09:59:30 51°8.885 2°34.063 -999 -999 -999 -999
2008-10-13 09:59:40 51°8.881 2°34.051 -999 -999 -999 -999
2008-10-13 09:59:50 51°8.877 2°34.039 -999 -999 -999 -999
2008-10-13 10:00:00 51°8.873 2°34.027 -999 -999 -999 -999
2008-10-13 10:00:10 51°8.869 2°34.014 -999 -999 -999 -999
2008-10-13 10:00:20 51°8.865 2°34.002 -999 -999 -999 -999
2008-10-13 10:00:30 51°8.861 2°33.99 -999 -999 -999 -999
2008-10-13 10:00:40 51°8.857 2°33.978 -999 -999 -999 -999
2008-10-13 10:00:50 51°8.853 2°33.966 -999 -999 -999 -999
2008-10-13 10:01:00 51°8.849 2°33.954 -999 -999 -999 -999
2008-10-13 10:01:10 51°8.845 2°33.942 -999 -999 -999 -999
2008-10-13 10:01:20 51°8.841 2°33.93 -999 -999 -999 -999
2008-10-13 10:01:30 51°8.837 2°33.918 -999 -999 -999 -999
2008-10-13 10:01:40 51°8.833 2°33.906 -999 -999 -999 -999
2008-10-13 10:01:50 51°8.83 2°33.894 -999 -999 -999 -999
2008-10-13 10:02:00 51°8.826 2°33.883 -999 -999 -999 -999
2008-10-13 10:02:10 51°8.822 2°33.871 -999 -999 -999 -999
2008-10-13 10:02:20 51°8.818 2°33.859 -999 -999 -999 -999
2008-10-13 10:02:30 51°8.814 2°33.848 -999 -999 -999 -999
2008-10-13 10:02:40 51°8.81 2°33.836 -999 -999 -999 -999
2008-10-13 10:02:50 51°8.806 2°33.824 -999 -999 -999 -999
2008-10-13 10:03:00 51°8.803 2°33.812 -999 -999 -999 -999
2008-10-13 10:03:10 51°8.799 2°33.801 -999 -999 -999 -999
2008-10-13 10:03:20 51°8.795 2°33.789 -999 -999 -999 -999
2008-10-13 10:03:30 51°8.791 2°33.777 -999 -999 -999 -999
2008-10-13 10:03:40 51°8.787 2°33.766 -999 -999 -999 -999
2008-10-13 10:03:50 51°8.783 2°33.754 -999 -999 -999 -999
2008-10-13 10:04:00 51°8.78 2°33.742 -999 -999 -999 -999
2008-10-13 10:04:10 51°8.776 2°33.731 -999 -999 -999 -999
2008-10-13 10:04:20 51°8.772 2°33.719 -999 -999 -999 -999
2008-10-13 10:04:30 51°8.768 2°33.707 -999 -999 -999 -999
2008-10-13 10:04:40 51°8.764 2°33.695 -999 -999 -999 -999
2008-10-13 10:04:50 51°8.76 2°33.684 -999 -999 -999 -999
2008-10-13 10:05:00 51°8.756 2°33.672 -999 -999 -999 -999
2008-10-13 10:05:10 51°8.752 2°33.66 -999 -999 -999 -999
2008-10-13 10:05:20 51°8.748 2°33.648 -999 -999 -999 -999
2008-10-13 10:05:30 51°8.744 2°33.636 -999 -999 -999 -999
2008-10-13 10:05:40 51°8.74 2°33.624 -999 -999 -999 -999
2008-10-13 10:05:50 51°8.736 2°33.612 -999 -999 -999 -999
2008-10-13 10:06:00 51°8.733 2°33.6 -999 -999 -999 -999
2008-10-13 10:06:10 51°8.729 2°33.588 -999 -999 -999 -999
2008-10-13 10:06:20 51°8.725 2°33.576 -999 -999 -999 -999
2008-10-13 10:06:30 51°8.721 2°33.565 -999 -999 -999 -999
2008-10-13 10:06:40 51°8.717 2°33.553 -999 -999 -999 -999
2008-10-13 10:06:50 51°8.714 2°33.541 -999 -999 -999 -999
2008-10-13 10:07:00 51°8.71 2°33.53 -999 -999 -999 -999
2008-10-13 10:07:10 51°8.706 2°33.518 -999 -999 -999 -999
2008-10-13 10:07:20 51°8.703 2°33.506 -999 -999 -999 -999
2008-10-13 10:07:30 51°8.699 2°33.495 -999 -999 -999 -999
2008-10-13 10:07:40 51°8.695 2°33.483 -999 -999 -999 -999
2008-10-13 10:07:50 51°8.691 2°33.471 -999 -999 -999 -999
2008-10-13 10:08:00 51°8.687 2°33.46 -999 -999 -999 -999
2008-10-13 10:08:10 51°8.684 2°33.448 -999 -999 -999 -999
2008-10-13 10:08:20 51°8.68 2°33.436 -999 -999 -999 -999
2008-10-13 10:08:30 51°8.676 2°33.425 -999 -999 -999 -999
2008-10-13 10:08:40 51°8.672 2°33.413 -999 -999 -999 -999
2008-10-13 10:08:50 51°8.668 2°33.401 -999 -999 -999 -999
2008-10-13 10:09:00 51°8.665 2°33.389 -999 -999 -999 -999
2008-10-13 10:09:10 51°8.661 2°33.377 -999 -999 -999 -999
2008-10-13 10:09:20 51°8.657 2°33.365 -999 -999 -999 -999
2008-10-13 10:09:30 51°8.653 2°33.354 -999 -999 -999 -999
2008-10-13 10:09:40 51°8.649 2°33.342 -999 -999 -999 -999
2008-10-13 10:09:50 51°8.646 2°33.33 -999 -999 -999 -999
2008-10-13 10:10:00 51°8.642 2°33.318 -999 -999 -999 -999
2008-10-13 10:10:10 51°8.638 2°33.307 -999 -999 -999 -999
2008-10-13 10:10:20 51°8.635 2°33.295 -999 -999 -999 -999
2008-10-13 10:10:30 51°8.631 2°33.284 -999 -999 -999 -999
2008-10-13 10:10:40 51°8.627 2°33.273 -999 -999 -999 -999
2008-10-13 10:10:50 51°8.623 2°33.261 -999 -999 -999 -999
2008-10-13 10:11:00 51°8.619 2°33.251 -999 -999 -999 -999
2008-10-13 10:11:10 51°8.615 2°33.24 -999 -999 -999 -999
2008-10-13 10:11:20 51°8.612 2°33.228 -999 -999 -999 -999
2008-10-13 10:11:30 51°8.61 2°33.216 -999 -999 -999 -999
2008-10-13 10:11:40 51°8.609 2°33.203 -999 -999 -999 -999
2008-10-13 10:11:50 51°8.609 2°33.191 -999 -999 -999 -999
2008-10-13 10:12:00 51°8.608 2°33.178 -999 -999 -999 -999
2008-10-13 10:12:10 51°8.608 2°33.165 -999 -999 -999 -999
2008-10-13 10:12:20 51°8.608 2°33.152 -999 -999 -999 -999
2008-10-13 10:12:30 51°8.607 2°33.139 -999 -999 -999 -999
2008-10-13 10:12:40 51°8.606 2°33.127 -999 -999 -999 -999
2008-10-13 10:12:50 51°8.606 2°33.114 -999 -999 -999 -999
2008-10-13 10:13:00 51°8.606 2°33.101 -999 -999 -999 -999
2008-10-13 10:13:10 51°8.608 2°33.087 -999 -999 -999 -999
2008-10-13 10:13:20 51°8.61 2°33.074 -999 -999 -999 -999
2008-10-13 10:13:30 51°8.613 2°33.061 -999 -999 -999 -999
2008-10-13 10:13:40 51°8.616 2°33.048 -999 -999 -999 -999
2008-10-13 10:13:50 51°8.62 2°33.035 -999 -999 -999 -999
2008-10-13 10:14:00 51°8.625 2°33.022 -999 -999 -999 -999
2008-10-13 10:14:10 51°8.63 2°33.009 -999 -999 -999 -999
2008-10-13 10:14:20 51°8.635 2°32.996 -999 -999 -999 -999
2008-10-13 10:14:30 51°8.641 2°32.983 -999 -999 -999 -999
2008-10-13 10:14:40 51°8.648 2°32.971 -999 -999 -999 -999
2008-10-13 10:14:50 51°8.655 2°32.959 -999 -999 -999 -999
2008-10-13 10:15:00 51°8.663 2°32.947 -999 -999 -999 -999
2008-10-13 10:15:10 51°8.672 2°32.937 -999 -999 -999 -999
2008-10-13 10:15:20 51°8.683 2°32.929 -999 -999 -999 -999
2008-10-13 10:15:30 51°8.694 2°32.924 -999 -999 -999 -999
2008-10-13 10:15:40 51°8.703 2°32.921 -999 -999 -999 -999
2008-10-13 10:15:50 51°8.713 2°32.918 -999 -999 -999 -999
2008-10-13 10:16:00 51°8.723 2°32.917 -999 -999 -999 -999
2008-10-13 10:16:10 51°8.732 2°32.917 -999 -999 -999 -999
2008-10-13 10:16:20 51°8.741 2°32.917 -999 -999 -999 -999
2008-10-13 10:16:30 51°8.749 2°32.917 -999 -999 -999 -999
2008-10-13 10:16:40 51°8.758 2°32.918 -999 -999 -999 -999
2008-10-13 10:16:50 51°8.766 2°32.919 -999 -999 -999 -999
2008-10-13 10:17:00 51°8.773 2°32.921 -999 -999 -999 -999
2008-10-13 10:17:10 51°8.781 2°32.922 -999 -999 -999 -999
2008-10-13 10:17:20 51°8.788 2°32.924 -999 -999 -999 -999
2008-10-13 10:17:30 51°8.795 2°32.925 -999 -999 -999 -999
2008-10-13 10:17:40 51°8.801 2°32.927 -999 -999 -999 -999
2008-10-13 10:17:50 51°8.807 2°32.929 -999 -999 -999 -999
2008-10-13 10:18:00 51°8.813 2°32.931 -999 -999 -999 -999
2008-10-13 10:18:10 51°8.819 2°32.933 -999 -999 -999 -999
2008-10-13 10:18:20 51°8.825 2°32.934 -999 -999 -999 -999
2008-10-13 10:18:30 51°8.83 2°32.936 -999 -999 -999 -999
2008-10-13 10:18:40 51°8.835 2°32.939 -999 -999 -999 -999
2008-10-13 10:18:50 51°8.84 2°32.941 -999 -999 -999 -999
2008-10-13 10:19:00 51°8.845 2°32.943 -999 -999 -999 -999
2008-10-13 10:19:10 51°8.85 2°32.945 -999 -999 -999 -999
2008-10-13 10:19:20 51°8.854 2°32.948 -999 -999 -999 -999
2008-10-13 10:19:30 51°8.858 2°32.95 -999 -999 -999 -999
2008-10-13 10:19:40 51°8.862 2°32.953 -999 -999 -999 -999
2008-10-13 10:19:50 51°8.866 2°32.956 -999 -999 -999 -999
2008-10-13 10:20:00 51°8.87 2°32.958 -999 -999 -999 -999
2008-10-13 10:20:10 51°8.874 2°32.961 -999 -999 -999 -999
2008-10-13 10:20:20 51°8.877 2°32.964 -999 -999 -999 -999
2008-10-13 10:20:30 51°8.882 2°32.966 -999 -999 -999 -999
2008-10-13 10:20:40 51°8.887 2°32.964 -999 -999 -999 -999
2008-10-13 10:20:50 51°8.894 2°32.962 -999 -999 -999 -999
2008-10-13 10:21:00 51°8.903 2°32.96 -999 -999 -999 -999
2008-10-13 10:21:10 51°8.914 2°32.959 -999 -999 -999 -999
2008-10-13 10:21:20 51°8.926 2°32.962 -999 -999 -999 -999
2008-10-13 10:21:30 51°8.938 2°32.969 -999 -999 -999 -999
2008-10-13 10:21:40 51°8.951 2°32.98 -999 -999 -999 -999
2008-10-13 10:21:50 51°8.962 2°32.995 -999 -999 -999 -999
2008-10-13 10:22:00 51°8.972 2°33.013 -999 -999 -999 -999
2008-10-13 10:22:10 51°8.98 2°33.035 -999 -999 -999 -999
2008-10-13 10:22:20 51°8.984 2°33.058 -999 -999 -999 -999
2008-10-13 10:22:30 51°8.986 2°33.082 -999 -999 -999 -999
2008-10-13 10:22:40 51°8.986 2°33.105 -999 -999 -999 -999
2008-10-13 10:22:50 51°8.982 2°33.127 -999 -999 -999 -999
2008-10-13 10:23:00 51°8.977 2°33.146 -999 -999 -999 -999
2008-10-13 10:23:10 51°8.969 2°33.162 -999 -999 -999 -999
2008-10-13 10:23:20 51°8.961 2°33.175 -999 -999 -999 -999
2008-10-13 10:23:30 51°8.954 2°33.186 -999 -999 -999 -999
2008-10-13 10:23:40 51°8.947 2°33.196 -999 -999 -999 -999
2008-10-13 10:23:50 51°8.941 2°33.205 -999 -999 -999 -999
2008-10-13 10:24:00 51°8.934 2°33.213 -999 -999 -999 -999
2008-10-13 10:24:10 51°8.928 2°33.222 -999 -999 -999 -999
2008-10-13 10:24:20 51°8.923 2°33.23 -999 -999 -999 -999
2008-10-13 10:24:30 51°8.917 2°33.238 -999 -999 -999 -999
2008-10-13 10:24:40 51°8.912 2°33.245 -999 -999 -999 -999
2008-10-13 10:24:50 51°8.906 2°33.253 -999 -999 -999 -999
2008-10-13 10:25:00 51°8.901 2°33.259 -999 -999 -999 -999
2008-10-13 10:25:10 51°8.897 2°33.266 -999 -999 -999 -999
2008-10-13 10:25:20 51°8.892 2°33.272 -999 -999 -999 -999
2008-10-13 10:25:30 51°8.887 2°33.277 -999 -999 -999 -999
2008-10-13 10:25:40 51°8.883 2°33.283 -999 -999 -999 -999
2008-10-13 10:25:50 51°8.879 2°33.288 -999 -999 -999 -999
2008-10-13 10:26:00 51°8.875 2°33.294 -999 -999 -999 -999
2008-10-13 10:26:10 51°8.871 2°33.299 -999 -999 -999 -999
2008-10-13 10:26:20 51°8.867 2°33.304 -999 -999 -999 -999
2008-10-13 10:26:30 51°8.863 2°33.309 -999 -999 -999 -999
2008-10-13 10:26:40 51°8.859 2°33.313 -999 -999 -999 -999
2008-10-13 10:26:50 51°8.855 2°33.318 -999 -999 -999 -999
2008-10-13 10:27:00 51°8.851 2°33.322 -999 -999 -999 -999
2008-10-13 10:27:10 51°8.848 2°33.326 -999 -999 -999 -999
2008-10-13 10:27:20 51°8.845 2°33.329 -999 -999 -999 -999
2008-10-13 10:27:30 51°8.841 2°33.332 -999 -999 -999 -999
2008-10-13 10:27:40 51°8.839 2°33.335 -999 -999 -999 -999
2008-10-13 10:27:50 51°8.836 2°33.337 -999 -999 -999 -999
2008-10-13 10:28:00 51°8.833 2°33.34 -999 -999 -999 -999
2008-10-13 10:28:10 51°8.83 2°33.342 -999 -999 -999 -999
2008-10-13 10:28:20 51°8.828 2°33.345 -999 -999 -999 -999
2008-10-13 10:28:30 51°8.825 2°33.347 -999 -999 -999 -999
2008-10-13 10:28:40 51°8.823 2°33.35 -999 -999 -999 -999
2008-10-13 10:28:50 51°8.82 2°33.353 -999 -999 -999 -999
2008-10-13 10:29:00 51°8.817 2°33.355 -999 -999 -999 -999